メインページ
METAR-TAF:

METAR-TAF

空港 :

ビンガムトン, ニューヨーク, アメリカ合衆国

緯度: 42-12-28N, 経度: 075-58-53W, 海抜: 496m

現時点の気象観測

当レポートは19分前の19:00(UTC)に作成
南西の風 8kt
気温 29°C
湿度 70%
気圧 1013 hPa
視程: 16.1km
高度3000ftの雲は散在している
高度4000ftの千切れ雲あり

METAR: KBGM 191900Z 22008KT 10SM SCT030 BKN040 29/23 A2991 RMK AO2 T02940233

時間: 15:19 (19:19 UTC)

予報

当レポートは1時間54分前の17:25(UTC)に作成
予報は19日の 18時(UTC)から 20日の 18時(UTC)まで有効
南西の風 7kt
視程: 10km
高度2500ftの雲は散在している
高度4000ftの千切れ雲あり
19日の 1900時(UTC)から
西/南西の風 10kt
視程: 10km
高度5000ftの千切れ雲あり
19日の 23時(UTC)から 20日の 03時(UTC)まで一時的に
高度4000ftの曇り, 積乱雲.
激しい雷雨, 雨
20日の 0700時(UTC)から
西/南西の風 4kt
視程: 10km
高度3000ftの雲は散在している
高度5000ftの千切れ雲あり
20日の 1500時(UTC)から
西の風 9kt
視程: 10km
高度3500ftの千切れ雲あり

TAF: KBGM 191725Z 1918/2018 22007KT P6SM SCT025 BKN040 FM191900 24010KT P6SM BKN050 TEMPO 1923/2003 TSRA OVC040CB FM200700 25004KT P6SM SCT030 BKN050 FM201500 26009KT P6SM BKN035

4,000以上の空港の気象観測と天気予報(METAR報とTAF報)

利用可能な観測所は地図上に黄色い丸と赤い丸で示す。

丸の上にカーソルを重ねると観測所名を参照できる。

次にクリックすると気象観測と天気予報を参照できる。

マップの切り替え:黒色「×」印の緑ボタンをクリックして拡大、「-」印の緑ボタンをクリックして縮小、緑色の三角印をクリックして隣りの地図に切り替え


METAR-TAF: